sensor_id;sensor_type;location;lat;lon;timestamp;P1;durP1;ratioP1;P2;durP2;ratioP2
35150;SDS011;55720;51.972;4.624;2023-02-18T00:01:16;68.50;;;24.17;;
35150;SDS011;55720;51.972;4.624;2023-02-18T00:03:43;75.82;;;25.33;;
35150;SDS011;55720;51.972;4.624;2023-02-18T00:06:13;69.43;;;24.13;;
35150;SDS011;55720;51.972;4.624;2023-02-18T00:08:40;71.78;;;23.80;;
35150;SDS011;55720;51.972;4.624;2023-02-18T00:11:07;62.97;;;23.05;;
35150;SDS011;55720;51.972;4.624;2023-02-18T00:13:33;68.72;;;22.65;;
35150;SDS011;55720;51.972;4.624;2023-02-18T00:16:02;56.35;;;20.30;;
35150;SDS011;55720;51.972;4.624;2023-02-18T00:18:29;62.78;;;21.58;;
35150;SDS011;55720;51.972;4.624;2023-02-18T00:20:54;60.05;;;18.98;;
35150;SDS011;55720;51.972;4.624;2023-02-18T00:23:19;59.83;;;19.55;;
35150;SDS011;55720;51.972;4.624;2023-02-18T00:25:45;60.08;;;20.95;;
35150;SDS011;55720;51.972;4.624;2023-02-18T00:28:10;59.85;;;20.38;;
35150;SDS011;55720;51.972;4.624;2023-02-18T00:30:39;65.35;;;21.30;;
35150;SDS011;55720;51.972;4.624;2023-02-18T00:33:24;62.60;;;20.70;;
35150;SDS011;55720;51.972;4.624;2023-02-18T00:35:50;70.65;;;22.40;;
35150;SDS011;55720;51.972;4.624;2023-02-18T00:38:16;74.63;;;22.73;;
35150;SDS011;55720;51.972;4.624;2023-02-18T00:40:41;72.18;;;22.13;;
35150;SDS011;55720;51.972;4.624;2023-02-18T00:43:07;76.25;;;23.58;;
35150;SDS011;55720;51.972;4.624;2023-02-18T00:45:34;80.97;;;23.35;;
35150;SDS011;55720;51.972;4.624;2023-02-18T00:47:59;75.30;;;22.17;;
35150;SDS011;55720;51.972;4.624;2023-02-18T00:50:24;75.38;;;23.38;;
35150;SDS011;55720;51.972;4.624;2023-02-18T00:52:50;80.90;;;24.92;;
35150;SDS011;55720;51.972;4.624;2023-02-18T00:55:15;73.07;;;22.95;;
35150;SDS011;55720;51.972;4.624;2023-02-18T00:57:41;79.57;;;24.05;;
35150;SDS011;55720;51.972;4.624;2023-02-18T01:00:06;80.13;;;24.65;;
35150;SDS011;55720;51.972;4.624;2023-02-18T01:02:32;87.15;;;26.25;;
35150;SDS011;55720;51.972;4.624;2023-02-18T01:04:58;82.78;;;23.20;;
35150;SDS011;55720;51.972;4.624;2023-02-18T01:07:23;74.32;;;24.25;;
35150;SDS011;55720;51.972;4.624;2023-02-18T01:09:48;83.60;;;26.10;;
35150;SDS011;55720;51.972;4.624;2023-02-18T01:12:14;85.93;;;26.83;;
35150;SDS011;55720;51.972;4.624;2023-02-18T01:14:40;80.97;;;26.33;;
35150;SDS011;55720;51.972;4.624;2023-02-18T01:17:05;82.72;;;25.67;;
35150;SDS011;55720;51.972;4.624;2023-02-18T01:19:31;85.45;;;26.67;;
35150;SDS011;55720;51.972;4.624;2023-02-18T01:21:56;90.50;;;27.83;;
35150;SDS011;55720;51.972;4.624;2023-02-18T01:24:21;86.32;;;28.25;;
35150;SDS011;55720;51.972;4.624;2023-02-18T01:26:47;90.78;;;27.80;;
35150;SDS011;55720;51.972;4.624;2023-02-18T01:29:12;95.35;;;28.60;;
35150;SDS011;55720;51.972;4.624;2023-02-18T01:31:37;86.70;;;28.38;;
35150;SDS011;55720;51.972;4.624;2023-02-18T01:34:03;94.38;;;28.83;;
35150;SDS011;55720;51.972;4.624;2023-02-18T01:36:28;101.85;;;29.33;;
35150;SDS011;55720;51.972;4.624;2023-02-18T01:38:54;93.35;;;29.17;;
35150;SDS011;55720;51.972;4.624;2023-02-18T01:41:19;91.03;;;30.17;;
35150;SDS011;55720;51.972;4.624;2023-02-18T01:43:45;89.72;;;28.92;;
35150;SDS011;55720;51.972;4.624;2023-02-18T01:53:47;92.97;;;29.95;;
35150;SDS011;55720;51.972;4.624;2023-02-18T01:56:17;91.30;;;30.75;;
35150;SDS011;55720;51.972;4.624;2023-02-18T02:01:22;86.80;;;31.35;;
35150;SDS011;55720;51.972;4.624;2023-02-18T02:03:50;92.53;;;31.40;;
35150;SDS011;55720;51.972;4.624;2023-02-18T02:06:16;88.55;;;30.70;;
35150;SDS011;55720;51.972;4.624;2023-02-18T02:08:44;89.05;;;31.88;;
35150;SDS011;55720;51.972;4.624;2023-02-18T02:11:34;87.82;;;31.17;;
35150;SDS011;55720;51.972;4.624;2023-02-18T02:17:01;91.00;;;32.60;;
35150;SDS011;55720;51.972;4.624;2023-02-18T02:25:11;88.53;;;29.23;;
35150;SDS011;55720;51.972;4.624;2023-02-18T02:28:07;82.47;;;27.90;;
35150;SDS011;55720;51.972;4.624;2023-02-18T02:45:09;59.03;;;20.55;;
35150;SDS011;55720;51.972;4.624;2023-02-18T02:48:05;50.53;;;17.60;;
35150;SDS011;55720;51.972;4.624;2023-02-18T02:53:16;39.28;;;13.90;;
35150;SDS011;55720;51.972;4.624;2023-02-18T02:56:02;30.48;;;12.10;;
35150;SDS011;55720;51.972;4.624;2023-02-18T02:58:28;30.98;;;10.80;;
35150;SDS011;55720;51.972;4.624;2023-02-18T03:03:54;18.05;;;8.52;;
35150;SDS011;55720;51.972;4.624;2023-02-18T03:11:57;15.27;;;6.15;;
35150;SDS011;55720;51.972;4.624;2023-02-18T03:14:29;15.68;;;6.18;;
35150;SDS011;55720;51.972;4.624;2023-02-18T03:17:23;13.02;;;6.20;;
35150;SDS011;55720;51.972;4.624;2023-02-18T03:19:56;16.83;;;7.18;;
35150;SDS011;55720;51.972;4.624;2023-02-18T03:22:32;13.50;;;6.60;;
35150;SDS011;55720;51.972;4.624;2023-02-18T03:25:03;17.85;;;7.75;;
35150;SDS011;55720;51.972;4.624;2023-02-18T03:27:34;19.00;;;8.90;;
35150;SDS011;55720;51.972;4.624;2023-02-18T03:32:39;24.73;;;9.50;;
35150;SDS011;55720;51.972;4.624;2023-02-18T03:35:10;23.38;;;8.93;;
35150;SDS011;55720;51.972;4.624;2023-02-18T03:37:41;23.02;;;9.25;;
35150;SDS011;55720;51.972;4.624;2023-02-18T03:40:11;22.60;;;10.00;;
35150;SDS011;55720;51.972;4.624;2023-02-18T03:42:37;27.63;;;10.30;;
35150;SDS011;55720;51.972;4.624;2023-02-18T03:45:03;26.10;;;10.70;;
35150;SDS011;55720;51.972;4.624;2023-02-18T03:47:28;26.25;;;10.32;;
35150;SDS011;55720;51.972;4.624;2023-02-18T03:49:54;26.77;;;10.50;;
35150;SDS011;55720;51.972;4.624;2023-02-18T03:52:19;22.15;;;9.43;;
35150;SDS011;55720;51.972;4.624;2023-02-18T03:54:45;21.77;;;9.85;;
35150;SDS011;55720;51.972;4.624;2023-02-18T03:57:10;21.05;;;9.68;;
35150;SDS011;55720;51.972;4.624;2023-02-18T03:59:36;19.02;;;10.07;;
35150;SDS011;55720;51.972;4.624;2023-02-18T04:02:01;23.17;;;9.48;;
35150;SDS011;55720;51.972;4.624;2023-02-18T04:04:27;21.83;;;9.60;;
35150;SDS011;55720;51.972;4.624;2023-02-18T04:06:54;19.65;;;9.93;;
35150;SDS011;55720;51.972;4.624;2023-02-18T04:09:19;21.23;;;9.70;;
35150;SDS011;55720;51.972;4.624;2023-02-18T04:11:44;24.55;;;9.85;;
35150;SDS011;55720;51.972;4.624;2023-02-18T04:14:10;20.67;;;10.95;;
35150;SDS011;55720;51.972;4.624;2023-02-18T04:16:38;26.40;;;12.23;;
35150;SDS011;55720;51.972;4.624;2023-02-18T04:19:03;24.75;;;12.60;;
35150;SDS011;55720;51.972;4.624;2023-02-18T04:21:31;27.98;;;13.25;;
35150;SDS011;55720;51.972;4.624;2023-02-18T04:23:57;28.95;;;13.85;;
35150;SDS011;55720;51.972;4.624;2023-02-18T04:26:23;35.92;;;15.35;;
35150;SDS011;55720;51.972;4.624;2023-02-18T04:28:49;35.78;;;16.02;;
35150;SDS011;55720;51.972;4.624;2023-02-18T04:31:14;37.72;;;17.10;;
35150;SDS011;55720;51.972;4.624;2023-02-18T04:33:39;43.88;;;17.35;;
35150;SDS011;55720;51.972;4.624;2023-02-18T04:36:05;43.78;;;18.50;;
35150;SDS011;55720;51.972;4.624;2023-02-18T04:38:31;44.38;;;18.02;;
35150;SDS011;55720;51.972;4.624;2023-02-18T04:40:56;43.80;;;17.52;;
35150;SDS011;55720;51.972;4.624;2023-02-18T04:43:21;46.72;;;19.83;;
35150;SDS011;55720;51.972;4.624;2023-02-18T04:45:47;52.30;;;18.58;;
35150;SDS011;55720;51.972;4.624;2023-02-18T04:48:12;51.75;;;18.55;;
35150;SDS011;55720;51.972;4.624;2023-02-18T04:50:37;52.60;;;19.30;;
35150;SDS011;55720;51.972;4.624;2023-02-18T04:53:03;52.22;;;19.17;;
35150;SDS011;55720;51.972;4.624;2023-02-18T04:55:28;53.30;;;21.05;;
35150;SDS011;55720;51.972;4.624;2023-02-18T04:57:54;48.65;;;20.27;;
35150;SDS011;55720;51.972;4.624;2023-02-18T05:00:19;49.80;;;19.83;;
35150;SDS011;55720;51.972;4.624;2023-02-18T05:02:45;47.03;;;20.27;;
35150;SDS011;55720;51.972;4.624;2023-02-18T05:05:12;53.33;;;21.48;;
35150;SDS011;55720;51.972;4.624;2023-02-18T05:07:38;45.85;;;20.77;;
35150;SDS011;55720;51.972;4.624;2023-02-18T05:10:06;40.08;;;18.45;;
35150;SDS011;55720;51.972;4.624;2023-02-18T05:12:33;39.15;;;19.17;;
35150;SDS011;55720;51.972;4.624;2023-02-18T05:14:58;35.40;;;17.85;;
35150;SDS011;55720;51.972;4.624;2023-02-18T05:17:23;39.80;;;18.30;;
35150;SDS011;55720;51.972;4.624;2023-02-18T05:19:49;43.53;;;18.10;;
35150;SDS011;55720;51.972;4.624;2023-02-18T05:22:14;40.42;;;19.25;;
35150;SDS011;55720;51.972;4.624;2023-02-18T05:24:40;44.90;;;20.67;;
35150;SDS011;55720;51.972;4.624;2023-02-18T05:27:05;48.70;;;21.05;;
35150;SDS011;55720;51.972;4.624;2023-02-18T05:29:30;48.90;;;21.75;;
35150;SDS011;55720;51.972;4.624;2023-02-18T05:31:56;52.40;;;20.85;;
35150;SDS011;55720;51.972;4.624;2023-02-18T05:34:24;54.58;;;22.48;;
35150;SDS011;55720;51.972;4.624;2023-02-18T05:36:50;49.53;;;21.75;;
35150;SDS011;55720;51.972;4.624;2023-02-18T05:39:15;49.70;;;20.38;;
35150;SDS011;55720;51.972;4.624;2023-02-18T05:41:40;49.60;;;20.85;;
35150;SDS011;55720;51.972;4.624;2023-02-18T05:44:06;49.92;;;21.02;;
35150;SDS011;55720;51.972;4.624;2023-02-18T05:46:50;51.28;;;21.17;;
35150;SDS011;55720;51.972;4.624;2023-02-18T05:49:15;50.95;;;21.35;;
35150;SDS011;55720;51.972;4.624;2023-02-18T05:51:40;56.95;;;23.10;;
35150;SDS011;55720;51.972;4.624;2023-02-18T05:54:06;61.60;;;24.60;;
35150;SDS011;55720;51.972;4.624;2023-02-18T05:56:31;59.38;;;23.65;;
35150;SDS011;55720;51.972;4.624;2023-02-18T05:58:56;66.03;;;24.23;;
35150;SDS011;55720;51.972;4.624;2023-02-18T06:01:22;63.05;;;23.55;;
35150;SDS011;55720;51.972;4.624;2023-02-18T06:03:47;59.95;;;23.33;;
35150;SDS011;55720;51.972;4.624;2023-02-18T06:06:13;61.10;;;22.65;;
35150;SDS011;55720;51.972;4.624;2023-02-18T06:08:38;57.47;;;20.88;;
35150;SDS011;55720;51.972;4.624;2023-02-18T06:11:03;50.75;;;20.48;;
35150;SDS011;55720;51.972;4.624;2023-02-18T06:13:29;45.33;;;20.58;;
35150;SDS011;55720;51.972;4.624;2023-02-18T06:15:54;58.58;;;21.33;;
35150;SDS011;55720;51.972;4.624;2023-02-18T06:18:20;54.45;;;20.63;;
35150;SDS011;55720;51.972;4.624;2023-02-18T06:20:46;41.30;;;18.33;;
35150;SDS011;55720;51.972;4.624;2023-02-18T06:23:12;47.45;;;16.27;;
35150;SDS011;55720;51.972;4.624;2023-02-18T06:25:38;46.30;;;14.93;;
35150;SDS011;55720;51.972;4.624;2023-02-18T06:28:04;39.20;;;13.25;;
35150;SDS011;55720;51.972;4.624;2023-02-18T06:30:29;39.35;;;13.90;;
35150;SDS011;55720;51.972;4.624;2023-02-18T06:32:54;44.15;;;12.93;;
35150;SDS011;55720;51.972;4.624;2023-02-18T06:35:20;35.70;;;12.10;;
35150;SDS011;55720;51.972;4.624;2023-02-18T06:37:45;44.08;;;14.25;;
35150;SDS011;55720;51.972;4.624;2023-02-18T06:40:11;37.72;;;11.80;;
35150;SDS011;55720;51.972;4.624;2023-02-18T06:42:37;44.08;;;12.60;;
35150;SDS011;55720;51.972;4.624;2023-02-18T06:45:02;38.13;;;12.48;;
35150;SDS011;55720;51.972;4.624;2023-02-18T06:47:30;27.63;;;11.88;;
35150;SDS011;55720;51.972;4.624;2023-02-18T06:49:56;35.58;;;10.27;;
35150;SDS011;55720;51.972;4.624;2023-02-18T06:52:21;31.05;;;9.60;;
35150;SDS011;55720;51.972;4.624;2023-02-18T06:54:47;32.60;;;10.25;;
35150;SDS011;55720;51.972;4.624;2023-02-18T06:57:12;38.72;;;8.82;;
35150;SDS011;55720;51.972;4.624;2023-02-18T06:59:37;30.67;;;7.85;;
35150;SDS011;55720;51.972;4.624;2023-02-18T07:02:03;20.40;;;7.75;;
35150;SDS011;55720;51.972;4.624;2023-02-18T07:04:28;26.35;;;6.38;;
35150;SDS011;55720;51.972;4.624;2023-02-18T07:06:54;36.15;;;6.63;;
35150;SDS011;55720;51.972;4.624;2023-02-18T07:09:19;33.10;;;6.25;;
35150;SDS011;55720;51.972;4.624;2023-02-18T07:11:45;31.73;;;5.95;;
35150;SDS011;55720;51.972;4.624;2023-02-18T07:14:10;23.65;;;4.78;;
35150;SDS011;55720;51.972;4.624;2023-02-18T07:16:35;27.70;;;4.00;;
35150;SDS011;55720;51.972;4.624;2023-02-18T07:19:01;27.48;;;4.10;;
35150;SDS011;55720;51.972;4.624;2023-02-18T07:21:26;28.92;;;4.13;;
35150;SDS011;55720;51.972;4.624;2023-02-18T07:23:51;28.23;;;3.88;;
35150;SDS011;55720;51.972;4.624;2023-02-18T07:26:17;23.58;;;4.05;;
35150;SDS011;55720;51.972;4.624;2023-02-18T07:28:42;25.75;;;3.72;;
35150;SDS011;55720;51.972;4.624;2023-02-18T07:31:08;22.27;;;3.70;;
35150;SDS011;55720;51.972;4.624;2023-02-18T07:33:33;27.63;;;3.42;;
35150;SDS011;55720;51.972;4.624;2023-02-18T07:35:59;24.20;;;3.45;;
35150;SDS011;55720;51.972;4.624;2023-02-18T07:38:27;27.92;;;3.53;;
35150;SDS011;55720;51.972;4.624;2023-02-18T07:40:53;20.45;;;2.80;;
35150;SDS011;55720;51.972;4.624;2023-02-18T07:43:19;25.13;;;3.20;;
35150;SDS011;55720;51.972;4.624;2023-02-18T07:45:45;19.13;;;3.05;;
35150;SDS011;55720;51.972;4.624;2023-02-18T07:48:11;17.48;;;3.05;;
35150;SDS011;55720;51.972;4.624;2023-02-18T07:50:40;28.55;;;2.80;;
35150;SDS011;55720;51.972;4.624;2023-02-18T07:53:07;21.30;;;3.13;;
35150;SDS011;55720;51.972;4.624;2023-02-18T07:55:35;20.73;;;2.55;;
35150;SDS011;55720;51.972;4.624;2023-02-18T07:58:19;19.85;;;2.35;;
35150;SDS011;55720;51.972;4.624;2023-02-18T08:00:47;20.33;;;2.80;;
35150;SDS011;55720;51.972;4.624;2023-02-18T08:03:14;12.43;;;2.40;;
35150;SDS011;55720;51.972;4.624;2023-02-18T08:05:43;15.85;;;2.30;;
35150;SDS011;55720;51.972;4.624;2023-02-18T08:08:19;18.27;;;2.33;;
35150;SDS011;55720;51.972;4.624;2023-02-18T08:10:47;18.85;;;2.70;;
35150;SDS011;55720;51.972;4.624;2023-02-18T08:13:13;19.35;;;3.20;;
35150;SDS011;55720;51.972;4.624;2023-02-18T08:15:39;22.48;;;3.33;;
35150;SDS011;55720;51.972;4.624;2023-02-18T08:18:05;8.98;;;2.10;;
35150;SDS011;55720;51.972;4.624;2023-02-18T08:20:35;18.02;;;2.55;;
35150;SDS011;55720;51.972;4.624;2023-02-18T08:23:02;21.20;;;2.50;;
35150;SDS011;55720;51.972;4.624;2023-02-18T08:25:28;13.70;;;2.25;;
35150;SDS011;55720;51.972;4.624;2023-02-18T08:27:54;8.45;;;2.03;;
35150;SDS011;55720;51.972;4.624;2023-02-18T08:30:19;20.65;;;2.65;;
35150;SDS011;55720;51.972;4.624;2023-02-18T08:32:45;16.25;;;2.67;;
35150;SDS011;55720;51.972;4.624;2023-02-18T08:35:12;13.15;;;2.28;;
35150;SDS011;55720;51.972;4.624;2023-02-18T08:37:37;18.10;;;2.28;;
35150;SDS011;55720;51.972;4.624;2023-02-18T08:40:03;15.70;;;2.30;;
35150;SDS011;55720;51.972;4.624;2023-02-18T08:42:30;22.67;;;2.75;;
35150;SDS011;55720;51.972;4.624;2023-02-18T08:44:55;21.05;;;3.17;;
35150;SDS011;55720;51.972;4.624;2023-02-18T08:47:21;21.63;;;2.70;;
35150;SDS011;55720;51.972;4.624;2023-02-18T08:49:46;17.55;;;2.70;;
35150;SDS011;55720;51.972;4.624;2023-02-18T08:52:11;19.88;;;2.72;;
35150;SDS011;55720;51.972;4.624;2023-02-18T08:54:37;14.68;;;2.80;;
35150;SDS011;55720;51.972;4.624;2023-02-18T08:57:02;17.38;;;2.60;;
35150;SDS011;55720;51.972;4.624;2023-02-18T08:59:27;22.48;;;2.13;;
35150;SDS011;55720;51.972;4.624;2023-02-18T09:01:53;13.57;;;2.22;;
35150;SDS011;55720;51.972;4.624;2023-02-18T09:04:18;16.05;;;2.70;;
35150;SDS011;55720;51.972;4.624;2023-02-18T09:06:45;14.15;;;2.20;;
35150;SDS011;55720;51.972;4.624;2023-02-18T09:09:11;27.15;;;3.65;;
35150;SDS011;55720;51.972;4.624;2023-02-18T09:11:36;19.17;;;2.45;;
35150;SDS011;55720;51.972;4.624;2023-02-18T09:14:02;25.05;;;2.67;;
35150;SDS011;55720;51.972;4.624;2023-02-18T09:16:27;18.67;;;3.65;;
35150;SDS011;55720;51.972;4.624;2023-02-18T09:18:54;20.52;;;2.63;;
35150;SDS011;55720;51.972;4.624;2023-02-18T09:21:20;20.75;;;3.10;;
35150;SDS011;55720;51.972;4.624;2023-02-18T09:23:47;15.75;;;2.85;;
35150;SDS011;55720;51.972;4.624;2023-02-18T09:26:14;19.50;;;2.72;;
35150;SDS011;55720;51.972;4.624;2023-02-18T09:28:41;20.63;;;3.03;;
35150;SDS011;55720;51.972;4.624;2023-02-18T09:31:08;19.42;;;2.45;;
35150;SDS011;55720;51.972;4.624;2023-02-18T09:33:36;22.20;;;2.30;;
35150;SDS011;55720;51.972;4.624;2023-02-18T09:36:03;19.48;;;2.97;;
35150;SDS011;55720;51.972;4.624;2023-02-18T09:38:29;15.57;;;3.05;;
35150;SDS011;55720;51.972;4.624;2023-02-18T09:40:54;28.63;;;2.17;;
35150;SDS011;55720;51.972;4.624;2023-02-18T09:43:29;14.05;;;2.42;;
35150;SDS011;55720;51.972;4.624;2023-02-18T09:46:19;24.10;;;2.88;;
35150;SDS011;55720;51.972;4.624;2023-02-18T09:48:48;19.43;;;3.03;;
35150;SDS011;55720;51.972;4.624;2023-02-18T09:51:16;14.63;;;2.45;;
35150;SDS011;55720;51.972;4.624;2023-02-18T09:53:43;19.83;;;2.72;;
35150;SDS011;55720;51.972;4.624;2023-02-18T09:56:13;14.95;;;2.55;;
35150;SDS011;55720;51.972;4.624;2023-02-18T09:58:44;24.42;;;3.13;;
35150;SDS011;55720;51.972;4.624;2023-02-18T10:01:24;24.65;;;3.10;;
35150;SDS011;55720;51.972;4.624;2023-02-18T10:03:50;24.00;;;2.90;;
35150;SDS011;55720;51.972;4.624;2023-02-18T10:06:19;22.40;;;2.42;;
35150;SDS011;55720;51.972;4.624;2023-02-18T10:08:48;17.15;;;2.90;;
35150;SDS011;55720;51.972;4.624;2023-02-18T10:11:39;22.58;;;3.75;;
35150;SDS011;55720;51.972;4.624;2023-02-18T10:14:10;18.55;;;2.58;;
35150;SDS011;55720;51.972;4.624;2023-02-18T10:16:37;22.08;;;3.10;;
35150;SDS011;55720;51.972;4.624;2023-02-18T10:19:04;22.85;;;3.22;;
35150;SDS011;55720;51.972;4.624;2023-02-18T10:21:52;19.52;;;3.03;;
35150;SDS011;55720;51.972;4.624;2023-02-18T10:24:38;23.15;;;2.63;;
35150;SDS011;55720;51.972;4.624;2023-02-18T10:27:08;13.73;;;2.05;;
35150;SDS011;55720;51.972;4.624;2023-02-18T10:29:38;17.42;;;2.25;;
35150;SDS011;55720;51.972;4.624;2023-02-18T10:37:44;16.27;;;2.25;;
35150;SDS011;55720;51.972;4.624;2023-02-18T10:40:26;21.00;;;2.28;;
35150;SDS011;55720;51.972;4.624;2023-02-18T10:43:10;10.88;;;1.90;;
35150;SDS011;55720;51.972;4.624;2023-02-18T10:51:14;17.92;;;2.13;;
35150;SDS011;55720;51.972;4.624;2023-02-18T10:53:43;14.75;;;1.75;;
35150;SDS011;55720;51.972;4.624;2023-02-18T10:59:09;15.73;;;2.55;;
35150;SDS011;55720;51.972;4.624;2023-02-18T11:01:36;22.73;;;2.20;;
35150;SDS011;55720;51.972;4.624;2023-02-18T11:04:07;15.50;;;2.33;;
35150;SDS011;55720;51.972;4.624;2023-02-18T11:06:40;15.25;;;2.17;;
35150;SDS011;55720;51.972;4.624;2023-02-18T11:09:33;18.40;;;2.17;;
35150;SDS011;55720;51.972;4.624;2023-02-18T11:12:12;14.23;;;2.22;;
35150;SDS011;55720;51.972;4.624;2023-02-18T11:14:47;13.52;;;1.95;;
35150;SDS011;55720;51.972;4.624;2023-02-18T11:17:17;16.02;;;2.17;;
35150;SDS011;55720;51.972;4.624;2023-02-18T11:19:51;18.27;;;2.05;;
35150;SDS011;55720;51.972;4.624;2023-02-18T11:22:20;18.48;;;2.00;;
35150;SDS011;55720;51.972;4.624;2023-02-18T11:24:56;14.20;;;2.30;;
35150;SDS011;55720;51.972;4.624;2023-02-18T11:27:45;16.85;;;2.08;;
35150;SDS011;55720;51.972;4.624;2023-02-18T11:30:31;16.88;;;2.17;;
35150;SDS011;55720;51.972;4.624;2023-02-18T11:33:01;12.25;;;1.80;;
35150;SDS011;55720;51.972;4.624;2023-02-18T11:35:31;11.35;;;2.50;;
35150;SDS011;55720;51.972;4.624;2023-02-18T11:38:01;15.70;;;2.13;;
35150;SDS011;55720;51.972;4.624;2023-02-18T11:41:06;10.90;;;1.45;;
35150;SDS011;55720;51.972;4.624;2023-02-18T11:43:32;14.25;;;1.83;;
35150;SDS011;55720;51.972;4.624;2023-02-18T11:48:41;10.55;;;1.83;;
35150;SDS011;55720;51.972;4.624;2023-02-18T11:54:20;14.02;;;1.60;;
35150;SDS011;55720;51.972;4.624;2023-02-18T11:57:02;12.18;;;1.40;;
35150;SDS011;55720;51.972;4.624;2023-02-18T11:59:34;10.98;;;1.85;;
35150;SDS011;55720;51.972;4.624;2023-02-18T12:02:05;9.63;;;2.20;;
35150;SDS011;55720;51.972;4.624;2023-02-18T12:04:51;16.05;;;1.70;;
35150;SDS011;55720;51.972;4.624;2023-02-18T12:07:30;11.50;;;1.70;;
35150;SDS011;55720;51.972;4.624;2023-02-18T12:10:03;10.48;;;1.63;;
35150;SDS011;55720;51.972;4.624;2023-02-18T12:13:13;14.65;;;2.03;;
35150;SDS011;55720;51.972;4.624;2023-02-18T12:26:27;11.45;;;1.50;;
35150;SDS011;55720;51.972;4.624;2023-02-18T12:31:36;16.15;;;2.38;;
35150;SDS011;55720;51.972;4.624;2023-02-18T12:43:04;14.85;;;2.25;;
35150;SDS011;55720;51.972;4.624;2023-02-18T12:53:36;15.77;;;1.98;;
35150;SDS011;55720;51.972;4.624;2023-02-18T13:05:21;9.52;;;1.40;;
35150;SDS011;55720;51.972;4.624;2023-02-18T13:08:02;16.55;;;2.22;;
35150;SDS011;55720;51.972;4.624;2023-02-18T13:13:10;8.15;;;1.88;;
35150;SDS011;55720;51.972;4.624;2023-02-18T13:15:44;12.80;;;1.85;;
35150;SDS011;55720;51.972;4.624;2023-02-18T13:18:17;12.27;;;1.98;;
35150;SDS011;55720;51.972;4.624;2023-02-18T13:20:58;9.85;;;1.60;;
35150;SDS011;55720;51.972;4.624;2023-02-18T13:23:38;13.10;;;1.63;;
35150;SDS011;55720;51.972;4.624;2023-02-18T13:26:10;13.73;;;1.83;;
35150;SDS011;55720;51.972;4.624;2023-02-18T13:37:07;12.65;;;1.92;;
35150;SDS011;55720;51.972;4.624;2023-02-18T13:39:35;6.65;;;1.85;;
35150;SDS011;55720;51.972;4.624;2023-02-18T13:43:15;11.13;;;1.85;;
35150;SDS011;55720;51.972;4.624;2023-02-18T13:47:40;14.95;;;2.15;;
35150;SDS011;55720;51.972;4.624;2023-02-18T13:55:45;10.77;;;1.90;;
35150;SDS011;55720;51.972;4.624;2023-02-18T13:58:23;10.75;;;1.80;;
35150;SDS011;55720;51.972;4.624;2023-02-18T14:01:00;9.43;;;1.85;;
35150;SDS011;55720;51.972;4.624;2023-02-18T14:05:55;21.25;;;2.00;;
35150;SDS011;55720;51.972;4.624;2023-02-18T14:22:28;10.57;;;2.03;;
35150;SDS011;55720;51.972;4.624;2023-02-18T14:27:34;7.32;;;1.75;;
35150;SDS011;55720;51.972;4.624;2023-02-18T14:30:04;13.52;;;2.03;;
35150;SDS011;55720;51.972;4.624;2023-02-18T14:32:39;10.43;;;1.90;;
35150;SDS011;55720;51.972;4.624;2023-02-18T14:40:51;13.85;;;2.25;;
35150;SDS011;55720;51.972;4.624;2023-02-18T14:43:35;15.57;;;2.17;;
35150;SDS011;55720;51.972;4.624;2023-02-18T14:51:26;13.07;;;2.13;;
35150;SDS011;55720;51.972;4.624;2023-02-18T14:53:55;13.68;;;1.48;;
35150;SDS011;55720;51.972;4.624;2023-02-18T14:56:26;12.35;;;2.15;;
35150;SDS011;55720;51.972;4.624;2023-02-18T14:58:59;14.20;;;2.35;;
35150;SDS011;55720;51.972;4.624;2023-02-18T15:01:27;11.90;;;2.35;;
35150;SDS011;55720;51.972;4.624;2023-02-18T15:03:59;16.45;;;1.95;;
35150;SDS011;55720;51.972;4.624;2023-02-18T15:06:35;10.50;;;1.75;;
35150;SDS011;55720;51.972;4.624;2023-02-18T15:09:12;12.73;;;1.70;;
35150;SDS011;55720;51.972;4.624;2023-02-18T15:14:29;11.88;;;2.17;;
35150;SDS011;55720;51.972;4.624;2023-02-18T15:16:57;11.07;;;2.27;;
35150;SDS011;55720;51.972;4.624;2023-02-18T15:19:25;18.27;;;2.35;;
35150;SDS011;55720;51.972;4.624;2023-02-18T15:21:53;13.68;;;2.33;;
35150;SDS011;55720;51.972;4.624;2023-02-18T15:24:30;14.43;;;2.88;;
35150;SDS011;55720;51.972;4.624;2023-02-18T15:26:59;18.42;;;2.70;;
35150;SDS011;55720;51.972;4.624;2023-02-18T15:29:28;14.43;;;2.65;;
35150;SDS011;55720;51.972;4.624;2023-02-18T15:31:57;13.05;;;2.42;;
35150;SDS011;55720;51.972;4.624;2023-02-18T15:34:26;18.15;;;2.70;;
35150;SDS011;55720;51.972;4.624;2023-02-18T15:36:59;11.65;;;2.42;;
35150;SDS011;55720;51.972;4.624;2023-02-18T15:39:58;17.02;;;2.50;;
35150;SDS011;55720;51.972;4.624;2023-02-18T15:42:42;12.20;;;2.38;;
35150;SDS011;55720;51.972;4.624;2023-02-18T15:45:52;15.18;;;2.33;;
35150;SDS011;55720;51.972;4.624;2023-02-18T15:48:26;16.15;;;2.40;;
35150;SDS011;55720;51.972;4.624;2023-02-18T15:50:53;17.13;;;2.70;;
35150;SDS011;55720;51.972;4.624;2023-02-18T15:53:20;14.10;;;2.60;;
35150;SDS011;55720;51.972;4.624;2023-02-18T15:55:48;14.50;;;2.60;;
35150;SDS011;55720;51.972;4.624;2023-02-18T15:58:27;10.57;;;2.20;;
35150;SDS011;55720;51.972;4.624;2023-02-18T16:00:58;17.55;;;3.17;;
35150;SDS011;55720;51.972;4.624;2023-02-18T16:03:26;14.27;;;2.97;;
35150;SDS011;55720;51.972;4.624;2023-02-18T16:06:07;17.35;;;2.75;;
35150;SDS011;55720;51.972;4.624;2023-02-18T16:08:45;20.38;;;3.30;;
35150;SDS011;55720;51.972;4.624;2023-02-18T16:11:21;16.83;;;2.90;;
35150;SDS011;55720;51.972;4.624;2023-02-18T16:13:49;17.48;;;3.25;;
35150;SDS011;55720;51.972;4.624;2023-02-18T16:16:19;21.60;;;3.40;;
35150;SDS011;55720;51.972;4.624;2023-02-18T16:18:49;15.52;;;3.17;;
35150;SDS011;55720;51.972;4.624;2023-02-18T16:23:44;22.55;;;3.75;;
35150;SDS011;55720;51.972;4.624;2023-02-18T16:29:14;19.90;;;3.47;;
35150;SDS011;55720;51.972;4.624;2023-02-18T16:31:47;17.13;;;3.75;;
35150;SDS011;55720;51.972;4.624;2023-02-18T16:34:13;27.25;;;5.00;;
35150;SDS011;55720;51.972;4.624;2023-02-18T16:36:38;26.25;;;4.88;;
35150;SDS011;55720;51.972;4.624;2023-02-18T16:39:24;23.45;;;4.47;;
35150;SDS011;55720;51.972;4.624;2023-02-18T16:41:49;25.15;;;4.15;;
35150;SDS011;55720;51.972;4.624;2023-02-18T16:44:14;26.20;;;5.40;;
35150;SDS011;55720;51.972;4.624;2023-02-18T16:46:40;26.58;;;5.60;;
35150;SDS011;55720;51.972;4.624;2023-02-18T16:49:07;24.58;;;5.95;;
35150;SDS011;55720;51.972;4.624;2023-02-18T16:51:37;25.98;;;5.43;;
35150;SDS011;55720;51.972;4.624;2023-02-18T16:54:02;26.40;;;6.30;;
35150;SDS011;55720;51.972;4.624;2023-02-18T16:56:29;29.90;;;5.60;;
35150;SDS011;55720;51.972;4.624;2023-02-18T16:58:57;21.85;;;5.35;;
35150;SDS011;55720;51.972;4.624;2023-02-18T17:03:50;27.52;;;6.72;;
35150;SDS011;55720;51.972;4.624;2023-02-18T17:06:17;29.15;;;7.20;;
35150;SDS011;55720;51.972;4.624;2023-02-18T17:08:43;27.33;;;7.70;;
35150;SDS011;55720;51.972;4.624;2023-02-18T17:11:13;29.20;;;8.13;;
35150;SDS011;55720;51.972;4.624;2023-02-18T17:14:02;24.88;;;7.20;;
35150;SDS011;55720;51.972;4.624;2023-02-18T17:16:29;42.40;;;7.32;;
35150;SDS011;55720;51.972;4.624;2023-02-18T17:18:54;32.58;;;7.15;;
35150;SDS011;55720;51.972;4.624;2023-02-18T17:21:21;26.73;;;6.60;;
35150;SDS011;55720;51.972;4.624;2023-02-18T17:23:48;34.88;;;7.85;;
35150;SDS011;55720;51.972;4.624;2023-02-18T17:26:24;27.85;;;6.35;;
35150;SDS011;55720;51.972;4.624;2023-02-18T17:28:52;21.42;;;5.88;;
35150;SDS011;55720;51.972;4.624;2023-02-18T17:31:20;25.92;;;5.45;;